sensor_id;sensor_type;location;lat;lon;timestamp;P1;durP1;ratioP1;P2;durP2;ratioP2
80944;SDS011;70400;50.934;11.590;2024-02-26T00:00:48;6.63;;;3.25;;
80944;SDS011;70400;50.934;11.590;2024-02-26T00:01:39;9.27;;;3.00;;
80944;SDS011;70400;50.934;11.590;2024-02-26T00:02:30;6.45;;;3.38;;
80944;SDS011;70400;50.934;11.590;2024-02-26T00:03:23;7.15;;;3.65;;
80944;SDS011;70400;50.934;11.590;2024-02-26T00:04:14;5.95;;;3.28;;
80944;SDS011;70400;50.934;11.590;2024-02-26T00:05:06;7.10;;;2.75;;
80944;SDS011;70400;50.934;11.590;2024-02-26T00:05:58;5.78;;;2.83;;
80944;SDS011;70400;50.934;11.590;2024-02-26T00:06:49;5.15;;;2.63;;
80944;SDS011;70400;50.934;11.590;2024-02-26T00:07:42;6.13;;;2.90;;
80944;SDS011;70400;50.934;11.590;2024-02-26T00:08:33;9.25;;;3.40;;
80944;SDS011;70400;50.934;11.590;2024-02-26T00:09:23;6.18;;;3.00;;
80944;SDS011;70400;50.934;11.590;2024-02-26T00:10:14;5.18;;;2.85;;
80944;SDS011;70400;50.934;11.590;2024-02-26T00:11:05;6.65;;;3.15;;
80944;SDS011;70400;50.934;11.590;2024-02-26T00:11:56;6.25;;;2.92;;
80944;SDS011;70400;50.934;11.590;2024-02-26T00:13:38;6.13;;;3.22;;
80944;SDS011;70400;50.934;11.590;2024-02-26T00:14:30;9.82;;;3.35;;
80944;SDS011;70400;50.934;11.590;2024-02-26T00:15:21;6.00;;;3.30;;
80944;SDS011;70400;50.934;11.590;2024-02-26T00:16:12;6.35;;;3.60;;
80944;SDS011;70400;50.934;11.590;2024-02-26T00:17:03;4.75;;;2.78;;
80944;SDS011;70400;50.934;11.590;2024-02-26T00:17:54;5.13;;;2.90;;
80944;SDS011;70400;50.934;11.590;2024-02-26T00:18:45;7.85;;;3.25;;
80944;SDS011;70400;50.934;11.590;2024-02-26T00:19:40;5.57;;;2.90;;
80944;SDS011;70400;50.934;11.590;2024-02-26T00:20:37;6.05;;;3.50;;
80944;SDS011;70400;50.934;11.590;2024-02-26T00:21:33;5.55;;;2.33;;
80944;SDS011;70400;50.934;11.590;2024-02-26T00:22:24;4.75;;;2.85;;
80944;SDS011;70400;50.934;11.590;2024-02-26T00:23:15;7.43;;;4.00;;
80944;SDS011;70400;50.934;11.590;2024-02-26T00:24:06;10.32;;;3.42;;
80944;SDS011;70400;50.934;11.590;2024-02-26T00:24:57;6.00;;;2.88;;
80944;SDS011;70400;50.934;11.590;2024-02-26T00:25:48;7.93;;;3.33;;
80944;SDS011;70400;50.934;11.590;2024-02-26T00:26:39;6.75;;;3.42;;
80944;SDS011;70400;50.934;11.590;2024-02-26T00:27:30;8.23;;;3.53;;
80944;SDS011;70400;50.934;11.590;2024-02-26T00:28:21;6.65;;;2.88;;
80944;SDS011;70400;50.934;11.590;2024-02-26T00:29:12;7.65;;;3.28;;
80944;SDS011;70400;50.934;11.590;2024-02-26T00:30:06;9.45;;;2.85;;
80944;SDS011;70400;50.934;11.590;2024-02-26T00:30:57;7.07;;;3.15;;
80944;SDS011;70400;50.934;11.590;2024-02-26T00:31:48;8.98;;;3.55;;
80944;SDS011;70400;50.934;11.590;2024-02-26T00:32:40;5.82;;;3.28;;
80944;SDS011;70400;50.934;11.590;2024-02-26T00:33:31;6.63;;;3.13;;
80944;SDS011;70400;50.934;11.590;2024-02-26T00:34:21;5.15;;;3.05;;
80944;SDS011;70400;50.934;11.590;2024-02-26T00:35:13;6.50;;;3.20;;
80944;SDS011;70400;50.934;11.590;2024-02-26T00:36:04;8.70;;;3.78;;
80944;SDS011;70400;50.934;11.590;2024-02-26T00:36:55;7.22;;;2.97;;
80944;SDS011;70400;50.934;11.590;2024-02-26T00:37:46;5.78;;;3.08;;
80944;SDS011;70400;50.934;11.590;2024-02-26T00:38:38;5.78;;;2.85;;
80944;SDS011;70400;50.934;11.590;2024-02-26T00:39:31;7.28;;;3.15;;
80944;SDS011;70400;50.934;11.590;2024-02-26T00:40:22;5.38;;;2.58;;
80944;SDS011;70400;50.934;11.590;2024-02-26T00:41:13;5.55;;;3.13;;
80944;SDS011;70400;50.934;11.590;2024-02-26T00:42:04;6.95;;;3.25;;
80944;SDS011;70400;50.934;11.590;2024-02-26T00:42:55;9.20;;;3.78;;
80944;SDS011;70400;50.934;11.590;2024-02-26T00:43:46;6.32;;;3.13;;
80944;SDS011;70400;50.934;11.590;2024-02-26T00:44:37;6.57;;;3.08;;
80944;SDS011;70400;50.934;11.590;2024-02-26T00:45:30;8.05;;;3.65;;
80944;SDS011;70400;50.934;11.590;2024-02-26T00:46:22;4.75;;;2.67;;
80944;SDS011;70400;50.934;11.590;2024-02-26T00:47:13;5.72;;;2.92;;
80944;SDS011;70400;50.934;11.590;2024-02-26T00:48:04;7.15;;;3.17;;
80944;SDS011;70400;50.934;11.590;2024-02-26T00:48:56;7.28;;;2.83;;
80944;SDS011;70400;50.934;11.590;2024-02-26T00:49:47;8.88;;;3.05;;
80944;SDS011;70400;50.934;11.590;2024-02-26T00:50:39;7.43;;;3.38;;
80944;SDS011;70400;50.934;11.590;2024-02-26T00:51:31;5.00;;;2.50;;
80944;SDS011;70400;50.934;11.590;2024-02-26T00:52:22;4.97;;;2.63;;
80944;SDS011;70400;50.934;11.590;2024-02-26T00:53:13;7.35;;;2.90;;
80944;SDS011;70400;50.934;11.590;2024-02-26T00:54:04;6.35;;;3.35;;
80944;SDS011;70400;50.934;11.590;2024-02-26T00:54:55;5.75;;;2.85;;
80944;SDS011;70400;50.934;11.590;2024-02-26T00:55:49;7.00;;;3.15;;
80944;SDS011;70400;50.934;11.590;2024-02-26T00:56:40;6.70;;;3.25;;
80944;SDS011;70400;50.934;11.590;2024-02-26T00:57:31;6.78;;;2.63;;
80944;SDS011;70400;50.934;11.590;2024-02-26T00:58:22;6.82;;;2.83;;
80944;SDS011;70400;50.934;11.590;2024-02-26T00:59:13;5.95;;;2.75;;
80944;SDS011;70400;50.934;11.590;2024-02-26T01:00:05;6.88;;;2.75;;
80944;SDS011;70400;50.934;11.590;2024-02-26T01:00:59;6.88;;;3.10;;
80944;SDS011;70400;50.934;11.590;2024-02-26T01:01:51;6.55;;;2.83;;
80944;SDS011;70400;50.934;11.590;2024-02-26T01:02:42;6.40;;;3.10;;
80944;SDS011;70400;50.934;11.590;2024-02-26T01:03:39;6.07;;;2.53;;
80944;SDS011;70400;50.934;11.590;2024-02-26T01:04:30;4.30;;;2.53;;
80944;SDS011;70400;50.934;11.590;2024-02-26T01:05:20;4.80;;;2.67;;
80944;SDS011;70400;50.934;11.590;2024-02-26T01:06:11;5.68;;;2.50;;
80944;SDS011;70400;50.934;11.590;2024-02-26T01:07:02;6.47;;;2.55;;
80944;SDS011;70400;50.934;11.590;2024-02-26T01:07:53;11.13;;;3.17;;
80944;SDS011;70400;50.934;11.590;2024-02-26T01:08:44;6.20;;;3.13;;
80944;SDS011;70400;50.934;11.590;2024-02-26T01:09:39;7.85;;;3.53;;
80944;SDS011;70400;50.934;11.590;2024-02-26T01:10:30;6.10;;;3.40;;
80944;SDS011;70400;50.934;11.590;2024-02-26T01:11:21;7.57;;;3.80;;
80944;SDS011;70400;50.934;11.590;2024-02-26T01:12:12;11.20;;;3.90;;
80944;SDS011;70400;50.934;11.590;2024-02-26T01:13:03;6.95;;;3.47;;
80944;SDS011;70400;50.934;11.590;2024-02-26T01:13:54;9.75;;;3.72;;
80944;SDS011;70400;50.934;11.590;2024-02-26T01:14:47;8.95;;;3.70;;
80944;SDS011;70400;50.934;11.590;2024-02-26T01:15:38;6.57;;;3.85;;
80944;SDS011;70400;50.934;11.590;2024-02-26T01:16:29;7.72;;;4.25;;
80944;SDS011;70400;50.934;11.590;2024-02-26T01:17:21;7.70;;;3.42;;
80944;SDS011;70400;50.934;11.590;2024-02-26T01:18:12;7.50;;;4.50;;
80944;SDS011;70400;50.934;11.590;2024-02-26T01:19:04;9.35;;;3.80;;
80944;SDS011;70400;50.934;11.590;2024-02-26T01:19:55;7.90;;;3.58;;
80944;SDS011;70400;50.934;11.590;2024-02-26T01:20:46;6.22;;;3.50;;
80944;SDS011;70400;50.934;11.590;2024-02-26T01:21:37;7.65;;;3.30;;
80944;SDS011;70400;50.934;11.590;2024-02-26T01:22:28;7.28;;;3.72;;
80944;SDS011;70400;50.934;11.590;2024-02-26T01:23:18;8.30;;;3.30;;
80944;SDS011;70400;50.934;11.590;2024-02-26T01:24:10;7.20;;;3.67;;
80944;SDS011;70400;50.934;11.590;2024-02-26T01:25:01;6.32;;;3.30;;
80944;SDS011;70400;50.934;11.590;2024-02-26T01:25:52;8.93;;;4.07;;
80944;SDS011;70400;50.934;11.590;2024-02-26T01:26:43;8.40;;;3.90;;
80944;SDS011;70400;50.934;11.590;2024-02-26T01:27:34;7.50;;;3.63;;
80944;SDS011;70400;50.934;11.590;2024-02-26T01:28:24;9.02;;;4.00;;
80944;SDS011;70400;50.934;11.590;2024-02-26T01:29:15;7.40;;;3.85;;
80944;SDS011;70400;50.934;11.590;2024-02-26T01:30:06;8.38;;;4.00;;
80944;SDS011;70400;50.934;11.590;2024-02-26T01:30:58;8.73;;;3.92;;
80944;SDS011;70400;50.934;11.590;2024-02-26T01:31:50;9.27;;;4.18;;
80944;SDS011;70400;50.934;11.590;2024-02-26T01:32:41;9.30;;;4.35;;
80944;SDS011;70400;50.934;11.590;2024-02-26T01:33:32;9.18;;;4.18;;
80944;SDS011;70400;50.934;11.590;2024-02-26T01:34:24;8.98;;;4.22;;
80944;SDS011;70400;50.934;11.590;2024-02-26T01:35:14;8.15;;;4.38;;
80944;SDS011;70400;50.934;11.590;2024-02-26T01:36:05;6.20;;;3.30;;
80944;SDS011;70400;50.934;11.590;2024-02-26T01:36:57;5.95;;;3.50;;
80944;SDS011;70400;50.934;11.590;2024-02-26T01:37:48;7.50;;;3.28;;
80944;SDS011;70400;50.934;11.590;2024-02-26T01:38:38;5.68;;;3.13;;
80944;SDS011;70400;50.934;11.590;2024-02-26T01:39:29;7.10;;;3.55;;
80944;SDS011;70400;50.934;11.590;2024-02-26T01:40:20;7.13;;;3.42;;
80944;SDS011;70400;50.934;11.590;2024-02-26T01:41:11;5.80;;;3.28;;
80944;SDS011;70400;50.934;11.590;2024-02-26T01:42:04;7.97;;;3.35;;
80944;SDS011;70400;50.934;11.590;2024-02-26T01:42:55;7.72;;;3.28;;
80944;SDS011;70400;50.934;11.590;2024-02-26T01:43:46;7.32;;;3.60;;
80944;SDS011;70400;50.934;11.590;2024-02-26T01:44:37;5.60;;;3.05;;
80944;SDS011;70400;50.934;11.590;2024-02-26T01:45:28;6.40;;;3.30;;
80944;SDS011;70400;50.934;11.590;2024-02-26T01:46:19;7.38;;;3.97;;
80944;SDS011;70400;50.934;11.590;2024-02-26T01:47:11;8.18;;;3.83;;
80944;SDS011;70400;50.934;11.590;2024-02-26T01:48:03;9.52;;;3.72;;
80944;SDS011;70400;50.934;11.590;2024-02-26T01:48:55;8.25;;;4.45;;
80944;SDS011;70400;50.934;11.590;2024-02-26T01:49:46;8.02;;;4.18;;
80944;SDS011;70400;50.934;11.590;2024-02-26T01:50:38;9.40;;;4.10;;
80944;SDS011;70400;50.934;11.590;2024-02-26T01:52:22;10.73;;;4.55;;
80944;SDS011;70400;50.934;11.590;2024-02-26T01:53:13;6.32;;;3.45;;
80944;SDS011;70400;50.934;11.590;2024-02-26T01:54:05;7.88;;;4.28;;
80944;SDS011;70400;50.934;11.590;2024-02-26T01:54:58;7.28;;;4.00;;
80944;SDS011;70400;50.934;11.590;2024-02-26T01:55:51;9.30;;;3.58;;
80944;SDS011;70400;50.934;11.590;2024-02-26T01:56:42;6.70;;;4.05;;
80944;SDS011;70400;50.934;11.590;2024-02-26T01:57:33;6.30;;;3.63;;
80944;SDS011;70400;50.934;11.590;2024-02-26T01:58:24;8.80;;;3.97;;
80944;SDS011;70400;50.934;11.590;2024-02-26T01:59:15;10.02;;;3.72;;
80944;SDS011;70400;50.934;11.590;2024-02-26T02:00:06;6.13;;;4.05;;
80944;SDS011;70400;50.934;11.590;2024-02-26T02:00:58;8.00;;;4.80;;
80944;SDS011;70400;50.934;11.590;2024-02-26T02:01:51;8.70;;;3.72;;
80944;SDS011;70400;50.934;11.590;2024-02-26T02:02:45;8.38;;;3.70;;
80944;SDS011;70400;50.934;11.590;2024-02-26T02:03:38;7.40;;;4.03;;
80944;SDS011;70400;50.934;11.590;2024-02-26T02:04:30;10.70;;;4.47;;
80944;SDS011;70400;50.934;11.590;2024-02-26T02:05:21;6.05;;;3.47;;
80944;SDS011;70400;50.934;11.590;2024-02-26T02:06:12;8.13;;;4.05;;
80944;SDS011;70400;50.934;11.590;2024-02-26T02:07:04;8.23;;;4.05;;
80944;SDS011;70400;50.934;11.590;2024-02-26T02:07:55;9.18;;;4.85;;
80944;SDS011;70400;50.934;11.590;2024-02-26T02:08:47;9.88;;;4.15;;
80944;SDS011;70400;50.934;11.590;2024-02-26T02:09:38;7.85;;;4.13;;
80944;SDS011;70400;50.934;11.590;2024-02-26T02:10:30;8.85;;;4.43;;
80944;SDS011;70400;50.934;11.590;2024-02-26T02:11:21;7.22;;;3.95;;
80944;SDS011;70400;50.934;11.590;2024-02-26T02:12:11;9.32;;;4.47;;
80944;SDS011;70400;50.934;11.590;2024-02-26T02:13:02;10.18;;;4.43;;
80944;SDS011;70400;50.934;11.590;2024-02-26T02:13:53;7.10;;;3.88;;
80944;SDS011;70400;50.934;11.590;2024-02-26T02:14:44;8.15;;;4.25;;
80944;SDS011;70400;50.934;11.590;2024-02-26T02:15:35;7.72;;;3.90;;
80944;SDS011;70400;50.934;11.590;2024-02-26T02:16:25;8.43;;;4.30;;
80944;SDS011;70400;50.934;11.590;2024-02-26T02:17:16;9.52;;;3.92;;
80944;SDS011;70400;50.934;11.590;2024-02-26T02:18:07;8.70;;;3.88;;
80944;SDS011;70400;50.934;11.590;2024-02-26T02:18:58;9.98;;;4.55;;
80944;SDS011;70400;50.934;11.590;2024-02-26T02:19:50;6.32;;;2.97;;
80944;SDS011;70400;50.934;11.590;2024-02-26T02:20:41;9.27;;;4.13;;
80944;SDS011;70400;50.934;11.590;2024-02-26T02:21:32;8.63;;;4.07;;
80944;SDS011;70400;50.934;11.590;2024-02-26T02:22:22;7.82;;;3.95;;
80944;SDS011;70400;50.934;11.590;2024-02-26T02:23:13;8.85;;;4.38;;
80944;SDS011;70400;50.934;11.590;2024-02-26T02:24:04;7.35;;;3.90;;
80944;SDS011;70400;50.934;11.590;2024-02-26T02:24:55;11.23;;;5.57;;
80944;SDS011;70400;50.934;11.590;2024-02-26T02:25:46;10.68;;;4.65;;
80944;SDS011;70400;50.934;11.590;2024-02-26T02:26:37;8.43;;;3.75;;
80944;SDS011;70400;50.934;11.590;2024-02-26T02:27:29;8.85;;;4.45;;
80944;SDS011;70400;50.934;11.590;2024-02-26T02:28:20;7.43;;;4.22;;
80944;SDS011;70400;50.934;11.590;2024-02-26T02:29:12;9.70;;;4.28;;
80944;SDS011;70400;50.934;11.590;2024-02-26T02:30:04;8.45;;;3.72;;
80944;SDS011;70400;50.934;11.590;2024-02-26T02:30:57;7.63;;;3.97;;
80944;SDS011;70400;50.934;11.590;2024-02-26T02:31:48;7.65;;;4.40;;
80944;SDS011;70400;50.934;11.590;2024-02-26T02:32:39;8.02;;;4.07;;
80944;SDS011;70400;50.934;11.590;2024-02-26T02:33:33;11.40;;;4.50;;
80944;SDS011;70400;50.934;11.590;2024-02-26T02:34:25;10.35;;;4.20;;
80944;SDS011;70400;50.934;11.590;2024-02-26T02:35:17;10.13;;;4.70;;
80944;SDS011;70400;50.934;11.590;2024-02-26T02:36:08;8.77;;;4.18;;
80944;SDS011;70400;50.934;11.590;2024-02-26T02:37:00;10.27;;;4.40;;
80944;SDS011;70400;50.934;11.590;2024-02-26T02:37:51;6.75;;;3.55;;
80944;SDS011;70400;50.934;11.590;2024-02-26T02:38:49;7.63;;;4.18;;
80944;SDS011;70400;50.934;11.590;2024-02-26T02:39:41;7.60;;;3.95;;
80944;SDS011;70400;50.934;11.590;2024-02-26T02:40:34;7.47;;;4.28;;
80944;SDS011;70400;50.934;11.590;2024-02-26T02:41:24;9.23;;;4.20;;
80944;SDS011;70400;50.934;11.590;2024-02-26T02:42:18;8.27;;;4.00;;
80944;SDS011;70400;50.934;11.590;2024-02-26T02:43:08;7.88;;;4.15;;
80944;SDS011;70400;50.934;11.590;2024-02-26T02:43:59;8.27;;;3.80;;
80944;SDS011;70400;50.934;11.590;2024-02-26T02:44:50;8.38;;;4.15;;
80944;SDS011;70400;50.934;11.590;2024-02-26T02:45:43;6.72;;;3.60;;
80944;SDS011;70400;50.934;11.590;2024-02-26T02:46:34;7.57;;;4.32;;
80944;SDS011;70400;50.934;11.590;2024-02-26T02:47:25;8.85;;;4.20;;
80944;SDS011;70400;50.934;11.590;2024-02-26T02:48:16;8.02;;;3.95;;
80944;SDS011;70400;50.934;11.590;2024-02-26T02:49:08;7.63;;;3.85;;
80944;SDS011;70400;50.934;11.590;2024-02-26T02:50:02;7.05;;;3.97;;
80944;SDS011;70400;50.934;11.590;2024-02-26T02:50:52;7.22;;;3.33;;
80944;SDS011;70400;50.934;11.590;2024-02-26T02:51:43;6.18;;;3.25;;
80944;SDS011;70400;50.934;11.590;2024-02-26T02:52:34;7.78;;;3.92;;
80944;SDS011;70400;50.934;11.590;2024-02-26T02:53:25;7.43;;;3.70;;
80944;SDS011;70400;50.934;11.590;2024-02-26T02:54:16;6.53;;;3.05;;
80944;SDS011;70400;50.934;11.590;2024-02-26T02:55:07;6.30;;;3.53;;
80944;SDS011;70400;50.934;11.590;2024-02-26T02:55:58;6.38;;;3.38;;
80944;SDS011;70400;50.934;11.590;2024-02-26T02:56:49;6.97;;;3.17;;
80944;SDS011;70400;50.934;11.590;2024-02-26T02:57:40;7.78;;;3.65;;
80944;SDS011;70400;50.934;11.590;2024-02-26T02:59:23;7.32;;;3.47;;
80944;SDS011;70400;50.934;11.590;2024-02-26T03:00:14;7.28;;;3.60;;
80944;SDS011;70400;50.934;11.590;2024-02-26T03:01:05;6.32;;;3.17;;
80944;SDS011;70400;50.934;11.590;2024-02-26T03:01:56;7.60;;;3.00;;
80944;SDS011;70400;50.934;11.590;2024-02-26T03:02:47;6.72;;;3.10;;
80944;SDS011;70400;50.934;11.590;2024-02-26T03:03:38;5.57;;;3.55;;
80944;SDS011;70400;50.934;11.590;2024-02-26T03:04:29;5.43;;;2.67;;
80944;SDS011;70400;50.934;11.590;2024-02-26T03:05:19;6.63;;;3.22;;
80944;SDS011;70400;50.934;11.590;2024-02-26T03:06:10;10.48;;;3.50;;
80944;SDS011;70400;50.934;11.590;2024-02-26T03:07:01;5.45;;;3.05;;
80944;SDS011;70400;50.934;11.590;2024-02-26T03:07:52;7.72;;;3.72;;
80944;SDS011;70400;50.934;11.590;2024-02-26T03:08:43;6.03;;;3.28;;
80944;SDS011;70400;50.934;11.590;2024-02-26T03:09:36;6.68;;;3.95;;
80944;SDS011;70400;50.934;11.590;2024-02-26T03:10:26;8.50;;;4.13;;
80944;SDS011;70400;50.934;11.590;2024-02-26T03:11:18;8.88;;;3.85;;
80944;SDS011;70400;50.934;11.590;2024-02-26T03:12:09;8.52;;;4.00;;
80944;SDS011;70400;50.934;11.590;2024-02-26T03:13:00;7.25;;;4.22;;
80944;SDS011;70400;50.934;11.590;2024-02-26T03:13:51;6.57;;;3.90;;
80944;SDS011;70400;50.934;11.590;2024-02-26T03:14:42;9.38;;;4.25;;
80944;SDS011;70400;50.934;11.590;2024-02-26T03:15:33;5.57;;;3.53;;
80944;SDS011;70400;50.934;11.590;2024-02-26T03:16:24;10.85;;;4.25;;
80944;SDS011;70400;50.934;11.590;2024-02-26T03:17:14;6.85;;;3.75;;
80944;SDS011;70400;50.934;11.590;2024-02-26T03:18:05;8.13;;;3.88;;
80944;SDS011;70400;50.934;11.590;2024-02-26T03:18:57;9.05;;;4.35;;
80944;SDS011;70400;50.934;11.590;2024-02-26T03:19:48;6.82;;;3.90;;
80944;SDS011;70400;50.934;11.590;2024-02-26T03:20:43;8.80;;;4.78;;
80944;SDS011;70400;50.934;11.590;2024-02-26T03:21:34;8.55;;;4.30;;
80944;SDS011;70400;50.934;11.590;2024-02-26T03:22:25;8.60;;;4.03;;
80944;SDS011;70400;50.934;11.590;2024-02-26T03:23:16;7.13;;;3.80;;
80944;SDS011;70400;50.934;11.590;2024-02-26T03:24:07;7.85;;;4.20;;
80944;SDS011;70400;50.934;11.590;2024-02-26T03:25:01;7.13;;;3.58;;
80944;SDS011;70400;50.934;11.590;2024-02-26T03:25:51;11.80;;;4.40;;
80944;SDS011;70400;50.934;11.590;2024-02-26T03:26:42;7.20;;;3.60;;
80944;SDS011;70400;50.934;11.590;2024-02-26T03:27:33;7.85;;;4.53;;
80944;SDS011;70400;50.934;11.590;2024-02-26T03:28:24;9.73;;;4.63;;
80944;SDS011;70400;50.934;11.590;2024-02-26T03:29:15;8.25;;;4.10;;
80944;SDS011;70400;50.934;11.590;2024-02-26T03:30:06;9.60;;;4.13;;
80944;SDS011;70400;50.934;11.590;2024-02-26T03:30:57;9.15;;;4.22;;
80944;SDS011;70400;50.934;11.590;2024-02-26T03:31:49;8.82;;;4.25;;
80944;SDS011;70400;50.934;11.590;2024-02-26T03:32:39;10.90;;;4.80;;
80944;SDS011;70400;50.934;11.590;2024-02-26T03:33:30;12.32;;;4.32;;
80944;SDS011;70400;50.934;11.590;2024-02-26T03:34:21;10.30;;;4.75;;
80944;SDS011;70400;50.934;11.590;2024-02-26T03:35:12;8.15;;;4.20;;
80944;SDS011;70400;50.934;11.590;2024-02-26T03:36:03;7.88;;;4.65;;
80944;SDS011;70400;50.934;11.590;2024-02-26T03:36:54;9.27;;;4.43;;
80944;SDS011;70400;50.934;11.590;2024-02-26T03:37:47;7.32;;;4.13;;
80944;SDS011;70400;50.934;11.590;2024-02-26T03:38:38;8.82;;;4.45;;
80944;SDS011;70400;50.934;11.590;2024-02-26T03:39:29;11.38;;;4.90;;
80944;SDS011;70400;50.934;11.590;2024-02-26T03:40:20;10.07;;;4.10;;
80944;SDS011;70400;50.934;11.590;2024-02-26T03:41:11;7.43;;;3.95;;
80944;SDS011;70400;50.934;11.590;2024-02-26T03:42:02;8.98;;;4.18;;
80944;SDS011;70400;50.934;11.590;2024-02-26T03:42:54;8.25;;;4.07;;
80944;SDS011;70400;50.934;11.590;2024-02-26T03:43:45;8.98;;;4.43;;
80944;SDS011;70400;50.934;11.590;2024-02-26T03:44:35;9.93;;;4.35;;
80944;SDS011;70400;50.934;11.590;2024-02-26T03:45:26;7.32;;;3.67;;
80944;SDS011;70400;50.934;11.590;2024-02-26T03:46:18;12.93;;;4.35;;
80944;SDS011;70400;50.934;11.590;2024-02-26T03:47:09;7.90;;;3.78;;
80944;SDS011;70400;50.934;11.590;2024-02-26T03:48:00;9.40;;;4.70;;
80944;SDS011;70400;50.934;11.590;2024-02-26T03:48:51;8.43;;;4.60;;
80944;SDS011;70400;50.934;11.590;2024-02-26T03:49:42;10.27;;;4.63;;
80944;SDS011;70400;50.934;11.590;2024-02-26T03:50:33;8.18;;;4.25;;
80944;SDS011;70400;50.934;11.590;2024-02-26T03:51:25;11.23;;;4.13;;
80944;SDS011;70400;50.934;11.590;2024-02-26T03:52:17;10.00;;;4.40;;
80944;SDS011;70400;50.934;11.590;2024-02-26T03:53:08;7.50;;;3.97;;
80944;SDS011;70400;50.934;11.590;2024-02-26T03:54:04;8.32;;;4.05;;
80944;SDS011;70400;50.934;11.590;2024-02-26T03:54:55;8.82;;;4.43;;
80944;SDS011;70400;50.934;11.590;2024-02-26T03:55:46;8.27;;;4.00;;
80944;SDS011;70400;50.934;11.590;2024-02-26T03:56:37;8.63;;;4.15;;
80944;SDS011;70400;50.934;11.590;2024-02-26T03:57:28;10.70;;;3.85;;
80944;SDS011;70400;50.934;11.590;2024-02-26T03:58:19;8.18;;;3.78;;
80944;SDS011;70400;50.934;11.590;2024-02-26T03:59:09;11.85;;;4.15;;
80944;SDS011;70400;50.934;11.590;2024-02-26T04:00:00;9.65;;;4.05;;
80944;SDS011;70400;50.934;11.590;2024-02-26T04:01:00;7.70;;;3.85;;
80944;SDS011;70400;50.934;11.590;2024-02-26T04:01:51;7.15;;;3.70;;
80944;SDS011;70400;50.934;11.590;2024-02-26T04:02:42;7.10;;;3.42;;
80944;SDS011;70400;50.934;11.590;2024-02-26T04:03:33;5.90;;;3.15;;
80944;SDS011;70400;50.934;11.590;2024-02-26T04:04:24;5.32;;;2.65;;
80944;SDS011;70400;50.934;11.590;2024-02-26T04:05:15;6.90;;;3.20;;
80944;SDS011;70400;50.934;11.590;2024-02-26T04:06:08;5.50;;;2.70;;
80944;SDS011;70400;50.934;11.590;2024-02-26T04:07:01;6.45;;;2.95;;
80944;SDS011;70400;50.934;11.590;2024-02-26T04:07:52;6.10;;;2.88;;
80944;SDS011;70400;50.934;11.590;2024-02-26T04:08:43;8.45;;;3.38;;
80944;SDS011;70400;50.934;11.590;2024-02-26T04:09:34;6.40;;;3.10;;
80944;SDS011;70400;50.934;11.590;2024-02-26T04:10:25;8.45;;;3.58;;
80944;SDS011;70400;50.934;11.590;2024-02-26T04:11:16;8.70;;;3.92;;
80944;SDS011;70400;50.934;11.590;2024-02-26T04:12:09;5.88;;;3.35;;
80944;SDS011;70400;50.934;11.590;2024-02-26T04:13:00;8.82;;;3.42;;
80944;SDS011;70400;50.934;11.590;2024-02-26T04:13:51;8.02;;;3.53;;
80944;SDS011;70400;50.934;11.590;2024-02-26T04:14:43;6.15;;;3.28;;
80944;SDS011;70400;50.934;11.590;2024-02-26T04:15:33;6.68;;;3.08;;
80944;SDS011;70400;50.934;11.590;2024-02-26T04:16:24;8.43;;;3.10;;
80944;SDS011;70400;50.934;11.590;2024-02-26T04:17:15;7.85;;;3.38;;
80944;SDS011;70400;50.934;11.590;2024-02-26T04:18:06;9.05;;;4.22;;
80944;SDS011;70400;50.934;11.590;2024-02-26T04:18:57;7.07;;;3.58;;
80944;SDS011;70400;50.934;11.590;2024-02-26T04:19:48;6.65;;;3.47;;
80944;SDS011;70400;50.934;11.590;2024-02-26T04:20:39;10.45;;;4.47;;
80944;SDS011;70400;50.934;11.590;2024-02-26T04:21:33;7.03;;;3.90;;
80944;SDS011;70400;50.934;11.590;2024-02-26T04:22:24;8.68;;;4.35;;
80944;SDS011;70400;50.934;11.590;2024-02-26T04:23:15;10.98;;;4.55;;
80944;SDS011;70400;50.934;11.590;2024-02-26T04:24:06;10.52;;;4.30;;
80944;SDS011;70400;50.934;11.590;2024-02-26T04:24:57;10.32;;;3.90;;
80944;SDS011;70400;50.934;11.590;2024-02-26T04:25:48;8.95;;;4.13;;
80944;SDS011;70400;50.934;11.590;2024-02-26T04:26:39;8.38;;;5.00;;
80944;SDS011;70400;50.934;11.590;2024-02-26T04:27:30;9.68;;;3.83;;
80944;SDS011;70400;50.934;11.590;2024-02-26T04:28:21;7.93;;;4.18;;
80944;SDS011;70400;50.934;11.590;2024-02-26T04:29:12;10.70;;;4.25;;
80944;SDS011;70400;50.934;11.590;2024-02-26T04:30:03;7.18;;;3.72;;
80944;SDS011;70400;50.934;11.590;2024-02-26T04:30:55;8.82;;;3.42;;
80944;SDS011;70400;50.934;11.590;2024-02-26T04:31:46;6.70;;;3.28;;
80944;SDS011;70400;50.934;11.590;2024-02-26T04:32:36;10.65;;;3.05;;
80944;SDS011;70400;50.934;11.590;2024-02-26T04:33:27;7.47;;;4.05;;
80944;SDS011;70400;50.934;11.590;2024-02-26T04:34:18;7.60;;;4.28;;
80944;SDS011;70400;50.934;11.590;2024-02-26T04:35:09;9.27;;;3.95;;
80944;SDS011;70400;50.934;11.590;2024-02-26T04:36:00;6.97;;;3.00;;
80944;SDS011;70400;50.934;11.590;2024-02-26T04:36:51;7.40;;;3.45;;
80944;SDS011;70400;50.934;11.590;2024-02-26T04:37:42;6.43;;;3.20;;
80944;SDS011;70400;50.934;11.590;2024-02-26T04:38:33;7.90;;;3.50;;
80944;SDS011;70400;50.934;11.590;2024-02-26T04:39:24;7.00;;;3.58;;
80944;SDS011;70400;50.934;11.590;2024-02-26T04:40:15;10.50;;;4.25;;
80944;SDS011;70400;50.934;11.590;2024-02-26T04:41:06;6.45;;;3.40;;
80944;SDS011;70400;50.934;11.590;2024-02-26T04:41:57;6.90;;;3.42;;
80944;SDS011;70400;50.934;11.590;2024-02-26T04:42:48;8.15;;;4.20;;
80944;SDS011;70400;50.934;11.590;2024-02-26T04:43:39;8.10;;;3.92;;
80944;SDS011;70400;50.934;11.590;2024-02-26T04:44:32;6.63;;;3.38;;
80944;SDS011;70400;50.934;11.590;2024-02-26T04:45:23;8.35;;;3.55;;
80944;SDS011;70400;50.934;11.590;2024-02-26T04:46:14;7.78;;;3.95;;
80944;SDS011;70400;50.934;11.590;2024-02-26T04:47:05;8.18;;;3.35;;
80944;SDS011;70400;50.934;11.590;2024-02-26T04:47:57;6.32;;;3.28;;
80944;SDS011;70400;50.934;11.590;2024-02-26T04:48:48;7.25;;;3.40;;
80944;SDS011;70400;50.934;11.590;2024-02-26T04:49:39;7.90;;;3.67;;
80944;SDS011;70400;50.934;11.590;2024-02-26T04:50:30;6.30;;;3.15;;
80944;SDS011;70400;50.934;11.590;2024-02-26T04:51:21;6.07;;;3.60;;
80944;SDS011;70400;50.934;11.590;2024-02-26T04:52:12;10.02;;;3.65;;
80944;SDS011;70400;50.934;11.590;2024-02-26T04:53:03;9.32;;;3.85;;
80944;SDS011;70400;50.934;11.590;2024-02-26T04:53:54;7.40;;;3.85;;
80944;SDS011;70400;50.934;11.590;2024-02-26T04:54:45;8.88;;;3.78;;
80944;SDS011;70400;50.934;11.590;2024-02-26T04:55:36;11.18;;;3.63;;
80944;SDS011;70400;50.934;11.590;2024-02-26T04:56:27;7.63;;;3.65;;
80944;SDS011;70400;50.934;11.590;2024-02-26T04:57:18;7.70;;;3.55;;
80944;SDS011;70400;50.934;11.590;2024-02-26T04:58:09;6.32;;;3.22;;
80944;SDS011;70400;50.934;11.590;2024-02-26T04:59:01;5.93;;;3.50;;
80944;SDS011;70400;50.934;11.590;2024-02-26T04:59:52;6.32;;;3.25;;
80944;SDS011;70400;50.934;11.590;2024-02-26T05:00:43;6.07;;;3.13;;
80944;SDS011;70400;50.934;11.590;2024-02-26T05:01:34;6.35;;;3.58;;
80944;SDS011;70400;50.934;11.590;2024-02-26T05:02:27;6.97;;;3.58;;
80944;SDS011;70400;50.934;11.590;2024-02-26T05:03:20;7.90;;;3.45;;
80944;SDS011;70400;50.934;11.590;2024-02-26T05:04:11;9.07;;;4.00;;
80944;SDS011;70400;50.934;11.590;2024-02-26T05:05:03;7.70;;;3.88;;
80944;SDS011;70400;50.934;11.590;2024-02-26T05:05:55;13.45;;;3.42;;
80944;SDS011;70400;50.934;11.590;2024-02-26T05:06:48;6.80;;;3.63;;
80944;SDS011;70400;50.934;11.590;2024-02-26T05:07:40;9.15;;;3.88;;